sensor_id;sensor_type;location;lat;lon;timestamp;P1;durP1;ratioP1;P2;durP2;ratioP2
20417;SDS011;10368;51.436;6.774;2023-12-20T00:00:29;19.90;;;10.73;;
20417;SDS011;10368;51.436;6.774;2023-12-20T00:02:56;26.57;;;11.37;;
20417;SDS011;10368;51.436;6.774;2023-12-20T00:05:23;21.00;;;11.37;;
20417;SDS011;10368;51.436;6.774;2023-12-20T00:07:50;27.27;;;11.20;;
20417;SDS011;10368;51.436;6.774;2023-12-20T00:10:17;22.97;;;11.43;;
20417;SDS011;10368;51.436;6.774;2023-12-20T00:12:44;20.63;;;10.23;;
20417;SDS011;10368;51.436;6.774;2023-12-20T00:15:11;23.43;;;11.20;;
20417;SDS011;10368;51.436;6.774;2023-12-20T00:17:38;23.87;;;10.97;;
20417;SDS011;10368;51.436;6.774;2023-12-20T00:20:05;20.27;;;10.63;;
20417;SDS011;10368;51.436;6.774;2023-12-20T00:22:33;24.10;;;10.50;;
20417;SDS011;10368;51.436;6.774;2023-12-20T00:25:00;19.07;;;9.03;;
20417;SDS011;10368;51.436;6.774;2023-12-20T00:27:28;20.87;;;10.33;;
20417;SDS011;10368;51.436;6.774;2023-12-20T00:29:56;19.87;;;9.53;;
20417;SDS011;10368;51.436;6.774;2023-12-20T00:32:23;24.83;;;8.97;;
20417;SDS011;10368;51.436;6.774;2023-12-20T00:34:50;21.03;;;9.27;;
20417;SDS011;10368;51.436;6.774;2023-12-20T00:37:17;21.70;;;8.67;;
20417;SDS011;10368;51.436;6.774;2023-12-20T00:39:44;19.50;;;8.47;;
20417;SDS011;10368;51.436;6.774;2023-12-20T00:42:11;24.30;;;9.23;;
20417;SDS011;10368;51.436;6.774;2023-12-20T00:44:38;19.77;;;8.93;;
20417;SDS011;10368;51.436;6.774;2023-12-20T00:47:05;14.20;;;7.80;;
20417;SDS011;10368;51.436;6.774;2023-12-20T00:49:31;15.47;;;7.73;;
20417;SDS011;10368;51.436;6.774;2023-12-20T00:51:58;14.97;;;7.87;;
20417;SDS011;10368;51.436;6.774;2023-12-20T00:54:25;17.03;;;7.47;;
20417;SDS011;10368;51.436;6.774;2023-12-20T00:56:52;20.97;;;8.47;;
20417;SDS011;10368;51.436;6.774;2023-12-20T00:59:19;13.43;;;7.10;;
20417;SDS011;10368;51.436;6.774;2023-12-20T01:01:46;18.30;;;7.87;;
20417;SDS011;10368;51.436;6.774;2023-12-20T01:04:13;15.00;;;7.97;;
20417;SDS011;10368;51.436;6.774;2023-12-20T01:06:43;18.83;;;8.70;;
20417;SDS011;10368;51.436;6.774;2023-12-20T01:09:09;16.43;;;8.40;;
20417;SDS011;10368;51.436;6.774;2023-12-20T01:11:36;21.47;;;8.93;;
20417;SDS011;10368;51.436;6.774;2023-12-20T01:14:03;20.60;;;8.27;;
20417;SDS011;10368;51.436;6.774;2023-12-20T01:16:31;13.33;;;7.70;;
20417;SDS011;10368;51.436;6.774;2023-12-20T01:18:58;21.37;;;8.83;;
20417;SDS011;10368;51.436;6.774;2023-12-20T01:21:25;16.23;;;9.90;;
20417;SDS011;10368;51.436;6.774;2023-12-20T01:23:51;18.00;;;9.33;;
20417;SDS011;10368;51.436;6.774;2023-12-20T01:26:18;21.43;;;11.27;;
20417;SDS011;10368;51.436;6.774;2023-12-20T01:28:45;19.20;;;8.50;;
20417;SDS011;10368;51.436;6.774;2023-12-20T01:31:12;16.80;;;9.37;;
20417;SDS011;10368;51.436;6.774;2023-12-20T01:33:39;21.13;;;8.90;;
20417;SDS011;10368;51.436;6.774;2023-12-20T01:36:06;18.67;;;8.17;;
20417;SDS011;10368;51.436;6.774;2023-12-20T01:38:32;14.57;;;8.27;;
20417;SDS011;10368;51.436;6.774;2023-12-20T01:40:59;23.57;;;10.30;;
20417;SDS011;10368;51.436;6.774;2023-12-20T01:43:26;20.33;;;8.30;;
20417;SDS011;10368;51.436;6.774;2023-12-20T01:45:58;17.87;;;7.83;;
20417;SDS011;10368;51.436;6.774;2023-12-20T01:48:25;21.07;;;8.33;;
20417;SDS011;10368;51.436;6.774;2023-12-20T01:50:54;17.27;;;7.27;;
20417;SDS011;10368;51.436;6.774;2023-12-20T01:53:21;11.20;;;7.17;;
20417;SDS011;10368;51.436;6.774;2023-12-20T01:55:52;16.33;;;7.77;;
20417;SDS011;10368;51.436;6.774;2023-12-20T01:58:21;22.87;;;7.87;;
20417;SDS011;10368;51.436;6.774;2023-12-20T02:00:49;14.53;;;7.27;;
20417;SDS011;10368;51.436;6.774;2023-12-20T02:03:16;13.37;;;7.40;;
20417;SDS011;10368;51.436;6.774;2023-12-20T02:05:44;20.67;;;7.67;;
20417;SDS011;10368;51.436;6.774;2023-12-20T02:08:13;17.37;;;7.87;;
20417;SDS011;10368;51.436;6.774;2023-12-20T02:10:40;20.67;;;8.20;;
20417;SDS011;10368;51.436;6.774;2023-12-20T02:13:07;16.60;;;9.33;;
20417;SDS011;10368;51.436;6.774;2023-12-20T02:15:34;14.47;;;7.80;;
20417;SDS011;10368;51.436;6.774;2023-12-20T02:18:03;17.43;;;7.80;;
20417;SDS011;10368;51.436;6.774;2023-12-20T02:20:31;21.83;;;8.37;;
20417;SDS011;10368;51.436;6.774;2023-12-20T02:22:58;18.00;;;8.10;;
20417;SDS011;10368;51.436;6.774;2023-12-20T02:25:24;17.30;;;7.43;;
20417;SDS011;10368;51.436;6.774;2023-12-20T02:27:51;19.77;;;8.13;;
20417;SDS011;10368;51.436;6.774;2023-12-20T02:30:18;18.60;;;7.90;;
20417;SDS011;10368;51.436;6.774;2023-12-20T02:32:46;19.43;;;8.97;;
20417;SDS011;10368;51.436;6.774;2023-12-20T02:35:13;23.70;;;8.23;;
20417;SDS011;10368;51.436;6.774;2023-12-20T02:37:40;16.17;;;7.10;;
20417;SDS011;10368;51.436;6.774;2023-12-20T02:40:07;18.47;;;6.87;;
20417;SDS011;10368;51.436;6.774;2023-12-20T02:42:35;16.57;;;6.93;;
20417;SDS011;10368;51.436;6.774;2023-12-20T02:45:02;15.07;;;6.80;;
20417;SDS011;10368;51.436;6.774;2023-12-20T02:47:29;24.77;;;7.30;;
20417;SDS011;10368;51.436;6.774;2023-12-20T02:49:56;16.27;;;6.67;;
20417;SDS011;10368;51.436;6.774;2023-12-20T02:52:24;15.17;;;6.20;;
20417;SDS011;10368;51.436;6.774;2023-12-20T02:54:51;16.97;;;5.80;;
20417;SDS011;10368;51.436;6.774;2023-12-20T02:57:18;13.93;;;5.37;;
20417;SDS011;10368;51.436;6.774;2023-12-20T02:59:45;12.37;;;6.30;;
20417;SDS011;10368;51.436;6.774;2023-12-20T03:02:12;13.20;;;5.27;;
20417;SDS011;10368;51.436;6.774;2023-12-20T03:04:39;20.20;;;5.60;;
20417;SDS011;10368;51.436;6.774;2023-12-20T03:07:06;14.77;;;4.90;;
20417;SDS011;10368;51.436;6.774;2023-12-20T03:09:34;15.30;;;5.47;;
20417;SDS011;10368;51.436;6.774;2023-12-20T03:12:21;16.97;;;5.47;;
20417;SDS011;10368;51.436;6.774;2023-12-20T03:14:48;14.67;;;4.33;;
20417;SDS011;10368;51.436;6.774;2023-12-20T03:17:15;13.90;;;5.50;;
20417;SDS011;10368;51.436;6.774;2023-12-20T03:19:42;11.37;;;4.00;;
20417;SDS011;10368;51.436;6.774;2023-12-20T03:22:09;13.53;;;3.90;;
20417;SDS011;10368;51.436;6.774;2023-12-20T03:24:35;17.03;;;4.00;;
20417;SDS011;10368;51.436;6.774;2023-12-20T03:27:02;19.10;;;4.33;;
20417;SDS011;10368;51.436;6.774;2023-12-20T03:29:29;6.63;;;3.10;;
20417;SDS011;10368;51.436;6.774;2023-12-20T03:31:56;12.07;;;4.17;;
20417;SDS011;10368;51.436;6.774;2023-12-20T03:34:23;15.83;;;3.23;;
20417;SDS011;10368;51.436;6.774;2023-12-20T03:36:50;15.37;;;3.80;;
20417;SDS011;10368;51.436;6.774;2023-12-20T03:39:17;8.37;;;2.90;;
20417;SDS011;10368;51.436;6.774;2023-12-20T03:41:44;11.53;;;3.13;;
20417;SDS011;10368;51.436;6.774;2023-12-20T03:44:11;8.53;;;3.87;;
20417;SDS011;10368;51.436;6.774;2023-12-20T03:46:38;7.63;;;3.10;;
20417;SDS011;10368;51.436;6.774;2023-12-20T03:49:04;15.43;;;5.13;;
20417;SDS011;10368;51.436;6.774;2023-12-20T03:51:31;14.03;;;3.03;;
20417;SDS011;10368;51.436;6.774;2023-12-20T03:53:58;7.73;;;2.47;;
20417;SDS011;10368;51.436;6.774;2023-12-20T03:56:25;17.07;;;2.60;;
20417;SDS011;10368;51.436;6.774;2023-12-20T03:58:52;8.90;;;2.40;;
20417;SDS011;10368;51.436;6.774;2023-12-20T04:01:19;8.93;;;3.43;;
20417;SDS011;10368;51.436;6.774;2023-12-20T04:03:46;13.97;;;3.33;;
20417;SDS011;10368;51.436;6.774;2023-12-20T04:06:16;16.10;;;3.43;;
20417;SDS011;10368;51.436;6.774;2023-12-20T04:08:44;15.40;;;3.40;;
20417;SDS011;10368;51.436;6.774;2023-12-20T04:11:12;12.17;;;2.80;;
20417;SDS011;10368;51.436;6.774;2023-12-20T04:13:39;11.27;;;3.23;;
20417;SDS011;10368;51.436;6.774;2023-12-20T04:16:06;9.57;;;3.50;;
20417;SDS011;10368;51.436;6.774;2023-12-20T04:18:33;12.40;;;3.50;;
20417;SDS011;10368;51.436;6.774;2023-12-20T04:21:00;16.80;;;4.17;;
20417;SDS011;10368;51.436;6.774;2023-12-20T04:23:26;11.23;;;3.07;;
20417;SDS011;10368;51.436;6.774;2023-12-20T04:25:54;10.00;;;3.63;;
20417;SDS011;10368;51.436;6.774;2023-12-20T04:28:21;12.40;;;2.97;;
20417;SDS011;10368;51.436;6.774;2023-12-20T04:30:47;15.10;;;3.77;;
20417;SDS011;10368;51.436;6.774;2023-12-20T04:33:15;12.87;;;3.27;;
20417;SDS011;10368;51.436;6.774;2023-12-20T04:35:42;13.23;;;3.77;;
20417;SDS011;10368;51.436;6.774;2023-12-20T04:38:09;19.03;;;4.33;;
20417;SDS011;10368;51.436;6.774;2023-12-20T04:40:36;13.83;;;3.70;;
20417;SDS011;10368;51.436;6.774;2023-12-20T04:43:03;9.30;;;3.23;;
20417;SDS011;10368;51.436;6.774;2023-12-20T04:45:30;18.40;;;4.60;;
20417;SDS011;10368;51.436;6.774;2023-12-20T04:47:56;12.37;;;4.83;;
20417;SDS011;10368;51.436;6.774;2023-12-20T04:50:24;25.27;;;4.83;;
20417;SDS011;10368;51.436;6.774;2023-12-20T04:52:51;11.43;;;4.47;;
20417;SDS011;10368;51.436;6.774;2023-12-20T04:55:18;12.03;;;4.73;;
20417;SDS011;10368;51.436;6.774;2023-12-20T04:57:45;12.47;;;5.33;;
20417;SDS011;10368;51.436;6.774;2023-12-20T05:00:12;11.57;;;4.77;;
20417;SDS011;10368;51.436;6.774;2023-12-20T05:02:41;18.93;;;5.60;;
20417;SDS011;10368;51.436;6.774;2023-12-20T05:05:08;15.17;;;4.97;;
20417;SDS011;10368;51.436;6.774;2023-12-20T05:07:36;19.73;;;5.30;;
20417;SDS011;10368;51.436;6.774;2023-12-20T05:10:03;16.17;;;5.47;;
20417;SDS011;10368;51.436;6.774;2023-12-20T05:12:35;20.70;;;4.90;;
20417;SDS011;10368;51.436;6.774;2023-12-20T05:15:01;12.43;;;5.30;;
20417;SDS011;10368;51.436;6.774;2023-12-20T05:17:30;22.00;;;5.67;;
20417;SDS011;10368;51.436;6.774;2023-12-20T05:19:56;11.73;;;5.37;;
20417;SDS011;10368;51.436;6.774;2023-12-20T05:22:23;14.60;;;4.90;;
20417;SDS011;10368;51.436;6.774;2023-12-20T05:24:50;15.77;;;4.37;;
20417;SDS011;10368;51.436;6.774;2023-12-20T05:27:17;21.73;;;6.43;;
20417;SDS011;10368;51.436;6.774;2023-12-20T05:29:44;25.77;;;6.23;;
20417;SDS011;10368;51.436;6.774;2023-12-20T05:32:11;12.53;;;5.07;;
20417;SDS011;10368;51.436;6.774;2023-12-20T05:34:38;14.60;;;5.37;;
20417;SDS011;10368;51.436;6.774;2023-12-20T05:37:05;9.37;;;5.63;;
20417;SDS011;10368;51.436;6.774;2023-12-20T05:39:32;14.87;;;5.20;;
20417;SDS011;10368;51.436;6.774;2023-12-20T05:41:59;26.67;;;5.93;;
20417;SDS011;10368;51.436;6.774;2023-12-20T05:44:26;19.03;;;5.80;;
20417;SDS011;10368;51.436;6.774;2023-12-20T05:46:53;18.97;;;6.00;;
20417;SDS011;10368;51.436;6.774;2023-12-20T05:49:19;19.17;;;4.70;;
20417;SDS011;10368;51.436;6.774;2023-12-20T05:51:48;18.60;;;6.87;;
20417;SDS011;10368;51.436;6.774;2023-12-20T05:54:15;19.93;;;6.17;;
20417;SDS011;10368;51.436;6.774;2023-12-20T05:56:42;16.90;;;5.43;;
20417;SDS011;10368;51.436;6.774;2023-12-20T05:59:09;20.47;;;5.47;;
20417;SDS011;10368;51.436;6.774;2023-12-20T06:01:36;13.37;;;5.20;;
20417;SDS011;10368;51.436;6.774;2023-12-20T06:04:03;13.13;;;5.00;;
20417;SDS011;10368;51.436;6.774;2023-12-20T06:06:30;19.63;;;4.70;;
20417;SDS011;10368;51.436;6.774;2023-12-20T06:08:57;21.90;;;5.23;;
20417;SDS011;10368;51.436;6.774;2023-12-20T06:11:25;15.17;;;6.50;;
20417;SDS011;10368;51.436;6.774;2023-12-20T06:13:53;17.20;;;6.20;;
20417;SDS011;10368;51.436;6.774;2023-12-20T06:16:19;24.03;;;6.60;;
20417;SDS011;10368;51.436;6.774;2023-12-20T06:18:46;11.00;;;4.63;;
20417;SDS011;10368;51.436;6.774;2023-12-20T06:21:13;13.70;;;5.03;;
20417;SDS011;10368;51.436;6.774;2023-12-20T06:23:41;13.47;;;5.50;;
20417;SDS011;10368;51.436;6.774;2023-12-20T06:26:08;16.20;;;5.70;;
20417;SDS011;10368;51.436;6.774;2023-12-20T06:28:35;20.47;;;4.80;;
20417;SDS011;10368;51.436;6.774;2023-12-20T06:31:04;18.50;;;6.13;;
20417;SDS011;10368;51.436;6.774;2023-12-20T06:33:31;19.63;;;6.03;;
20417;SDS011;10368;51.436;6.774;2023-12-20T06:35:58;19.47;;;5.17;;
20417;SDS011;10368;51.436;6.774;2023-12-20T06:38:25;11.10;;;4.77;;
20417;SDS011;10368;51.436;6.774;2023-12-20T06:40:52;19.23;;;5.73;;
20417;SDS011;10368;51.436;6.774;2023-12-20T06:43:19;18.03;;;5.60;;
20417;SDS011;10368;51.436;6.774;2023-12-20T06:46:06;17.20;;;4.70;;
20417;SDS011;10368;51.436;6.774;2023-12-20T06:48:33;17.67;;;4.90;;
20417;SDS011;10368;51.436;6.774;2023-12-20T06:51:01;9.13;;;4.73;;
20417;SDS011;10368;51.436;6.774;2023-12-20T06:53:28;20.57;;;5.60;;
20417;SDS011;10368;51.436;6.774;2023-12-20T06:55:55;18.87;;;5.57;;
20417;SDS011;10368;51.436;6.774;2023-12-20T06:58:23;17.17;;;4.83;;
20417;SDS011;10368;51.436;6.774;2023-12-20T07:00:50;14.90;;;5.53;;
20417;SDS011;10368;51.436;6.774;2023-12-20T07:03:17;13.37;;;4.70;;
20417;SDS011;10368;51.436;6.774;2023-12-20T07:05:44;15.70;;;4.97;;
20417;SDS011;10368;51.436;6.774;2023-12-20T07:08:12;16.50;;;5.50;;
20417;SDS011;10368;51.436;6.774;2023-12-20T07:10:40;18.57;;;4.73;;
20417;SDS011;10368;51.436;6.774;2023-12-20T07:13:07;18.47;;;5.30;;
20417;SDS011;10368;51.436;6.774;2023-12-20T07:15:34;13.57;;;4.73;;
20417;SDS011;10368;51.436;6.774;2023-12-20T07:18:03;22.93;;;4.80;;
20417;SDS011;10368;51.436;6.774;2023-12-20T07:20:32;19.80;;;5.90;;
20417;SDS011;10368;51.436;6.774;2023-12-20T07:22:59;13.97;;;5.03;;
20417;SDS011;10368;51.436;6.774;2023-12-20T07:25:26;16.40;;;4.63;;
20417;SDS011;10368;51.436;6.774;2023-12-20T07:27:53;15.67;;;5.00;;
20417;SDS011;10368;51.436;6.774;2023-12-20T07:30:20;17.43;;;5.33;;
20417;SDS011;10368;51.436;6.774;2023-12-20T07:32:47;20.63;;;5.73;;
20417;SDS011;10368;51.436;6.774;2023-12-20T07:35:15;20.43;;;5.53;;
20417;SDS011;10368;51.436;6.774;2023-12-20T07:37:42;14.10;;;4.83;;
20417;SDS011;10368;51.436;6.774;2023-12-20T07:40:10;19.70;;;5.63;;
20417;SDS011;10368;51.436;6.774;2023-12-20T07:42:37;14.17;;;4.87;;
20417;SDS011;10368;51.436;6.774;2023-12-20T07:45:05;13.80;;;5.40;;
20417;SDS011;10368;51.436;6.774;2023-12-20T07:47:34;17.50;;;5.67;;
20417;SDS011;10368;51.436;6.774;2023-12-20T07:50:01;11.93;;;4.73;;
20417;SDS011;10368;51.436;6.774;2023-12-20T07:52:31;12.17;;;4.37;;
20417;SDS011;10368;51.436;6.774;2023-12-20T07:54:58;14.30;;;4.60;;
20417;SDS011;10368;51.436;6.774;2023-12-20T07:57:28;15.67;;;5.00;;
20417;SDS011;10368;51.436;6.774;2023-12-20T07:59:56;17.03;;;5.40;;
20417;SDS011;10368;51.436;6.774;2023-12-20T08:02:23;23.13;;;5.77;;
20417;SDS011;10368;51.436;6.774;2023-12-20T08:04:49;14.80;;;4.73;;
20417;SDS011;10368;51.436;6.774;2023-12-20T08:07:16;23.77;;;6.90;;
20417;SDS011;10368;51.436;6.774;2023-12-20T08:09:43;11.67;;;4.90;;
20417;SDS011;10368;51.436;6.774;2023-12-20T08:12:10;14.93;;;6.20;;
20417;SDS011;10368;51.436;6.774;2023-12-20T08:14:37;22.87;;;7.30;;
20417;SDS011;10368;51.436;6.774;2023-12-20T08:17:04;10.07;;;4.57;;
20417;SDS011;10368;51.436;6.774;2023-12-20T08:19:31;15.37;;;4.73;;
20417;SDS011;10368;51.436;6.774;2023-12-20T08:21:58;17.47;;;5.93;;
20417;SDS011;10368;51.436;6.774;2023-12-20T08:24:25;15.37;;;6.10;;
20417;SDS011;10368;51.436;6.774;2023-12-20T08:26:52;16.27;;;6.13;;
20417;SDS011;10368;51.436;6.774;2023-12-20T08:29:20;12.70;;;5.53;;
20417;SDS011;10368;51.436;6.774;2023-12-20T08:31:51;19.37;;;7.23;;
20417;SDS011;10368;51.436;6.774;2023-12-20T08:34:19;18.70;;;5.93;;
20417;SDS011;10368;51.436;6.774;2023-12-20T08:36:46;14.60;;;5.13;;
20417;SDS011;10368;51.436;6.774;2023-12-20T08:39:13;16.07;;;5.73;;
20417;SDS011;10368;51.436;6.774;2023-12-20T08:41:40;16.00;;;5.10;;
20417;SDS011;10368;51.436;6.774;2023-12-20T08:44:07;20.47;;;4.83;;
20417;SDS011;10368;51.436;6.774;2023-12-20T08:46:34;12.10;;;4.80;;
20417;SDS011;10368;51.436;6.774;2023-12-20T08:49:02;16.03;;;5.40;;
20417;SDS011;10368;51.436;6.774;2023-12-20T08:51:29;22.40;;;5.47;;
20417;SDS011;10368;51.436;6.774;2023-12-20T08:53:56;10.57;;;4.07;;
20417;SDS011;10368;51.436;6.774;2023-12-20T08:56:22;9.80;;;3.50;;
20417;SDS011;10368;51.436;6.774;2023-12-20T08:58:49;11.90;;;4.90;;
20417;SDS011;10368;51.436;6.774;2023-12-20T09:01:16;21.00;;;4.07;;
20417;SDS011;10368;51.436;6.774;2023-12-20T09:03:43;8.30;;;3.20;;
20417;SDS011;10368;51.436;6.774;2023-12-20T09:06:10;11.50;;;3.70;;
20417;SDS011;10368;51.436;6.774;2023-12-20T09:08:37;21.03;;;4.43;;
20417;SDS011;10368;51.436;6.774;2023-12-20T09:11:04;15.43;;;4.60;;
20417;SDS011;10368;51.436;6.774;2023-12-20T09:13:31;14.70;;;2.47;;
20417;SDS011;10368;51.436;6.774;2023-12-20T09:15:58;15.23;;;5.67;;
20417;SDS011;10368;51.436;6.774;2023-12-20T09:18:26;7.00;;;4.00;;
20417;SDS011;10368;51.436;6.774;2023-12-20T09:20:53;17.47;;;3.77;;
20417;SDS011;10368;51.436;6.774;2023-12-20T09:23:20;22.77;;;4.50;;
20417;SDS011;10368;51.436;6.774;2023-12-20T09:25:46;13.33;;;4.73;;
20417;SDS011;10368;51.436;6.774;2023-12-20T09:28:13;9.07;;;4.50;;
20417;SDS011;10368;51.436;6.774;2023-12-20T09:30:41;10.97;;;4.33;;
20417;SDS011;10368;51.436;6.774;2023-12-20T09:33:08;21.90;;;4.13;;
20417;SDS011;10368;51.436;6.774;2023-12-20T09:35:35;12.03;;;3.83;;
20417;SDS011;10368;51.436;6.774;2023-12-20T09:38:03;8.77;;;3.97;;
20417;SDS011;10368;51.436;6.774;2023-12-20T09:40:30;13.37;;;4.90;;
20417;SDS011;10368;51.436;6.774;2023-12-20T09:43:03;11.10;;;3.83;;
20417;SDS011;10368;51.436;6.774;2023-12-20T09:45:35;13.93;;;4.30;;
20417;SDS011;10368;51.436;6.774;2023-12-20T09:48:02;10.00;;;3.70;;
20417;SDS011;10368;51.436;6.774;2023-12-20T09:50:30;10.97;;;3.80;;
20417;SDS011;10368;51.436;6.774;2023-12-20T09:52:58;9.83;;;4.70;;
20417;SDS011;10368;51.436;6.774;2023-12-20T09:55:28;11.57;;;3.90;;
20417;SDS011;10368;51.436;6.774;2023-12-20T09:57:59;15.30;;;5.63;;
20417;SDS011;10368;51.436;6.774;2023-12-20T10:00:26;14.20;;;3.67;;
20417;SDS011;10368;51.436;6.774;2023-12-20T10:02:57;19.70;;;4.80;;
20417;SDS011;10368;51.436;6.774;2023-12-20T10:05:29;12.33;;;4.67;;
20417;SDS011;10368;51.436;6.774;2023-12-20T10:07:59;10.17;;;3.70;;
20417;SDS011;10368;51.436;6.774;2023-12-20T10:10:27;13.03;;;3.67;;
20417;SDS011;10368;51.436;6.774;2023-12-20T10:13:10;14.93;;;3.60;;
20417;SDS011;10368;51.436;6.774;2023-12-20T10:15:39;9.07;;;2.70;;
20417;SDS011;10368;51.436;6.774;2023-12-20T10:18:08;8.33;;;3.33;;
20417;SDS011;10368;51.436;6.774;2023-12-20T10:20:35;15.53;;;4.30;;
20417;SDS011;10368;51.436;6.774;2023-12-20T10:23:02;9.17;;;3.17;;
20417;SDS011;10368;51.436;6.774;2023-12-20T10:25:30;13.33;;;4.60;;
20417;SDS011;10368;51.436;6.774;2023-12-20T10:28:11;8.40;;;3.93;;
20417;SDS011;10368;51.436;6.774;2023-12-20T10:30:45;11.67;;;4.07;;
20417;SDS011;10368;51.436;6.774;2023-12-20T10:33:12;16.03;;;4.47;;
20417;SDS011;10368;51.436;6.774;2023-12-20T10:35:39;12.10;;;4.53;;
20417;SDS011;10368;51.436;6.774;2023-12-20T10:38:12;11.77;;;4.73;;
20417;SDS011;10368;51.436;6.774;2023-12-20T10:40:40;14.17;;;4.03;;
20417;SDS011;10368;51.436;6.774;2023-12-20T10:43:09;13.57;;;4.93;;
20417;SDS011;10368;51.436;6.774;2023-12-20T10:45:36;16.67;;;4.87;;
20417;SDS011;10368;51.436;6.774;2023-12-20T10:48:04;20.87;;;4.93;;
20417;SDS011;10368;51.436;6.774;2023-12-20T10:50:31;12.57;;;4.17;;
20417;SDS011;10368;51.436;6.774;2023-12-20T10:52:59;14.40;;;4.63;;
20417;SDS011;10368;51.436;6.774;2023-12-20T10:55:27;13.27;;;4.80;;
20417;SDS011;10368;51.436;6.774;2023-12-20T10:57:58;13.40;;;4.87;;
20417;SDS011;10368;51.436;6.774;2023-12-20T11:00:28;15.27;;;4.50;;
20417;SDS011;10368;51.436;6.774;2023-12-20T11:02:58;15.57;;;4.83;;
20417;SDS011;10368;51.436;6.774;2023-12-20T11:05:36;13.43;;;4.67;;
20417;SDS011;10368;51.436;6.774;2023-12-20T11:14:07;14.57;;;4.80;;
20417;SDS011;10368;51.436;6.774;2023-12-20T11:16:43;11.07;;;4.60;;
20417;SDS011;10368;51.436;6.774;2023-12-20T11:19:20;16.57;;;5.77;;
20417;SDS011;10368;51.436;6.774;2023-12-20T11:21:47;11.10;;;3.40;;
20417;SDS011;10368;51.436;6.774;2023-12-20T11:24:15;15.37;;;5.03;;
20417;SDS011;10368;51.436;6.774;2023-12-20T11:26:46;13.13;;;4.97;;
20417;SDS011;10368;51.436;6.774;2023-12-20T11:29:28;9.83;;;5.23;;
20417;SDS011;10368;51.436;6.774;2023-12-20T11:31:56;19.30;;;4.90;;
20417;SDS011;10368;51.436;6.774;2023-12-20T11:34:27;14.57;;;5.63;;
20417;SDS011;10368;51.436;6.774;2023-12-20T11:36:56;10.43;;;5.30;;
20417;SDS011;10368;51.436;6.774;2023-12-20T11:39:26;9.60;;;4.13;;
20417;SDS011;10368;51.436;6.774;2023-12-20T11:42:03;10.87;;;4.97;;
20417;SDS011;10368;51.436;6.774;2023-12-20T11:44:31;19.07;;;6.00;;
20417;SDS011;10368;51.436;6.774;2023-12-20T11:46:59;14.27;;;5.27;;
20417;SDS011;10368;51.436;6.774;2023-12-20T11:49:28;11.33;;;4.80;;
20417;SDS011;10368;51.436;6.774;2023-12-20T11:51:58;13.53;;;5.43;;
20417;SDS011;10368;51.436;6.774;2023-12-20T11:54:26;8.67;;;4.90;;
20417;SDS011;10368;51.436;6.774;2023-12-20T11:56:53;17.67;;;5.30;;
20417;SDS011;10368;51.436;6.774;2023-12-20T11:59:20;17.30;;;4.83;;
20417;SDS011;10368;51.436;6.774;2023-12-20T12:01:50;11.37;;;5.33;;
20417;SDS011;10368;51.436;6.774;2023-12-20T12:04:18;13.20;;;5.50;;
20417;SDS011;10368;51.436;6.774;2023-12-20T12:06:45;15.43;;;5.27;;
20417;SDS011;10368;51.436;6.774;2023-12-20T12:09:12;11.50;;;4.07;;
20417;SDS011;10368;51.436;6.774;2023-12-20T12:11:40;12.70;;;5.30;;
20417;SDS011;10368;51.436;6.774;2023-12-20T12:14:07;12.17;;;5.73;;
20417;SDS011;10368;51.436;6.774;2023-12-20T12:16:34;11.63;;;4.33;;
20417;SDS011;10368;51.436;6.774;2023-12-20T12:19:01;15.47;;;4.10;;
20417;SDS011;10368;51.436;6.774;2023-12-20T12:21:28;11.73;;;5.03;;
20417;SDS011;10368;51.436;6.774;2023-12-20T12:24:06;15.47;;;5.40;;
20417;SDS011;10368;51.436;6.774;2023-12-20T12:26:33;20.27;;;5.07;;
20417;SDS011;10368;51.436;6.774;2023-12-20T12:29:01;12.60;;;4.10;;
20417;SDS011;10368;51.436;6.774;2023-12-20T12:31:28;14.03;;;5.43;;
20417;SDS011;10368;51.436;6.774;2023-12-20T12:33:55;11.20;;;3.90;;
20417;SDS011;10368;51.436;6.774;2023-12-20T12:36:23;21.07;;;4.63;;
20417;SDS011;10368;51.436;6.774;2023-12-20T12:38:50;9.83;;;5.07;;
20417;SDS011;10368;51.436;6.774;2023-12-20T12:41:17;15.07;;;4.23;;
20417;SDS011;10368;51.436;6.774;2023-12-20T12:43:44;8.20;;;4.30;;
20417;SDS011;10368;51.436;6.774;2023-12-20T12:46:11;16.87;;;5.00;;
20417;SDS011;10368;51.436;6.774;2023-12-20T12:48:38;21.00;;;5.53;;
20417;SDS011;10368;51.436;6.774;2023-12-20T12:51:08;17.73;;;5.23;;
20417;SDS011;10368;51.436;6.774;2023-12-20T12:53:39;11.57;;;5.10;;
20417;SDS011;10368;51.436;6.774;2023-12-20T12:56:06;13.53;;;4.87;;
20417;SDS011;10368;51.436;6.774;2023-12-20T12:58:34;14.03;;;5.40;;
20417;SDS011;10368;51.436;6.774;2023-12-20T13:01:02;12.17;;;5.93;;
20417;SDS011;10368;51.436;6.774;2023-12-20T13:03:30;10.80;;;5.73;;
20417;SDS011;10368;51.436;6.774;2023-12-20T13:05:57;12.27;;;5.43;;
20417;SDS011;10368;51.436;6.774;2023-12-20T13:08:24;18.33;;;5.97;;
20417;SDS011;10368;51.436;6.774;2023-12-20T13:10:50;9.47;;;6.03;;
20417;SDS011;10368;51.436;6.774;2023-12-20T13:13:17;13.10;;;6.50;;
20417;SDS011;10368;51.436;6.774;2023-12-20T13:15:44;13.00;;;5.70;;
20417;SDS011;10368;51.436;6.774;2023-12-20T13:18:17;16.00;;;5.77;;
20417;SDS011;10368;51.436;6.774;2023-12-20T13:20:49;15.90;;;6.50;;
20417;SDS011;10368;51.436;6.774;2023-12-20T13:23:16;25.27;;;6.87;;
20417;SDS011;10368;51.436;6.774;2023-12-20T13:25:44;15.13;;;6.60;;
20417;SDS011;10368;51.436;6.774;2023-12-20T13:28:14;13.90;;;7.27;;
20417;SDS011;10368;51.436;6.774;2023-12-20T13:30:41;8.73;;;6.30;;
20417;SDS011;10368;51.436;6.774;2023-12-20T13:33:08;10.27;;;7.20;;
20417;SDS011;10368;51.436;6.774;2023-12-20T13:35:36;22.53;;;5.93;;
20417;SDS011;10368;51.436;6.774;2023-12-20T13:38:03;13.13;;;5.87;;
20417;SDS011;10368;51.436;6.774;2023-12-20T13:40:30;18.43;;;7.30;;
20417;SDS011;10368;51.436;6.774;2023-12-20T13:42:57;15.90;;;7.87;;
20417;SDS011;10368;51.436;6.774;2023-12-20T13:45:24;17.17;;;7.00;;
20417;SDS011;10368;51.436;6.774;2023-12-20T13:47:51;14.00;;;7.37;;
20417;SDS011;10368;51.436;6.774;2023-12-20T13:50:18;14.20;;;5.93;;
20417;SDS011;10368;51.436;6.774;2023-12-20T13:52:45;15.67;;;7.27;;
20417;SDS011;10368;51.436;6.774;2023-12-20T13:55:12;16.33;;;7.03;;
20417;SDS011;10368;51.436;6.774;2023-12-20T13:57:40;14.50;;;6.93;;
20417;SDS011;10368;51.436;6.774;2023-12-20T14:00:20;24.63;;;7.83;;
20417;SDS011;10368;51.436;6.774;2023-12-20T14:02:48;12.17;;;6.23;;
20417;SDS011;10368;51.436;6.774;2023-12-20T14:05:16;15.97;;;8.17;;
20417;SDS011;10368;51.436;6.774;2023-12-20T14:07:48;20.10;;;8.43;;
20417;SDS011;10368;51.436;6.774;2023-12-20T14:10:15;14.43;;;7.97;;
20417;SDS011;10368;51.436;6.774;2023-12-20T14:12:43;15.53;;;6.13;;
20417;SDS011;10368;51.436;6.774;2023-12-20T14:15:11;11.83;;;6.90;;
20417;SDS011;10368;51.436;6.774;2023-12-20T14:17:40;20.53;;;8.40;;
20417;SDS011;10368;51.436;6.774;2023-12-20T14:20:10;20.27;;;8.07;;
20417;SDS011;10368;51.436;6.774;2023-12-20T14:22:40;18.93;;;7.97;;
20417;SDS011;10368;51.436;6.774;2023-12-20T14:25:11;17.70;;;6.30;;
20417;SDS011;10368;51.436;6.774;2023-12-20T14:27:39;18.07;;;8.87;;
20417;SDS011;10368;51.436;6.774;2023-12-20T14:30:11;19.00;;;8.13;;
20417;SDS011;10368;51.436;6.774;2023-12-20T14:32:40;23.43;;;7.83;;
20417;SDS011;10368;51.436;6.774;2023-12-20T14:35:12;20.17;;;7.17;;
20417;SDS011;10368;51.436;6.774;2023-12-20T14:37:41;16.80;;;7.03;;
20417;SDS011;10368;51.436;6.774;2023-12-20T14:40:08;15.67;;;7.57;;
20417;SDS011;10368;51.436;6.774;2023-12-20T14:42:44;14.17;;;7.07;;
20417;SDS011;10368;51.436;6.774;2023-12-20T14:45:12;21.17;;;8.00;;